Thursday, November 26, 2020 (04:32 UTC)
OPMET DATA
 
Terminal Aerodrome Forecast (TAF) and METAR
TAFs are issued by Aviation Meteorological Office, for Abu Dhabi (OMAA), Bateen (OMAD), Al Ain (OMAL), Dubai (OMDB), Al Maktoum (OMDW), Sharjah (OMSJ), Ras Al Khaimah (OMRK) and Fujairah (OMFJ) airports. These TAFs are issued every 6 hours and are valid for a 30 hour period. METARs (Aviation Routine Weather Reports) are updated hourly.
Show ICAO codes
Select OPMET type:        SEARCH   PRINT
Aviation Meteorology - National Center of Meteorology (NCM)
Telephone: +971 2 5757346 / 5053676
Email: metweb@adiamet.gov.ae
Website: www.avmet.ae
METAR OMAA 260400Z 13008KT CAVOK 22/13 Q1018 NOSIG=
METAR OMAD 260400Z VRB02KT CAVOK 22/12 Q1018 BECMG 14010KT=
METAR OMAL 260400Z 11005KT CAVOK 20/10 Q1020 NOSIG=
METAR OMDB 260400Z VRB02KT CAVOK 22/14 Q1018 NOSIG=
METAR OMDW 260400Z 09005KT CAVOK 16/12 Q1019 NOSIG=
METAR OMFJ 260400Z 30004KT 9999 FEW025 23/15 Q1020 A3012=
METAR OMSJ 260400Z 11009KT CAVOK 24/16 Q1019 NOSIG=
METAR OMRK 260400Z 09008KT 9999 FEW040 25/15 Q1019 A3010=
METAR OTBD 260400Z 33004KT 9999 FEW040 SCT090 23/18 Q1018 NOSIG=
METAR OTHH 260400Z 34004KT 9999 FEW040 SCT090 22/17 Q1017 NOSIG=
METAR OBBI 260400Z 28001KT 9999 FEW025 21/17 Q1017 NOSIG=
METAR OEDF 260400Z 21004KT CAVOK 15/12 Q1017 NOSIG=
METAR OEDR 260400Z 25005KT 3000 BR NSC 16/14 Q1016 NOSIG=
METAR OEJN 260400Z 34004KT 9999 SCT040 26/21 Q1010=
METAR OEMA 260400Z 28004KT CAVOK 22/14 Q1015 NOSIG=
METAR OEPA 260400Z 16014KT 9999 FEW035 15/06 Q1014 NOSIG=
METAR OERF 260400Z 24010KT 9999 SCT040 17/02 Q1010=
METAR OERK 260400Z 16004KT CAVOK 14/01 Q1018 NOSIG=
METAR OERR 260400Z 28016KT CAVOK 13/05 Q1008 NOSIG=
METAR OERY 260400Z 15007KT 9999 NSC 16/M01 Q1017 NOSIG=
METAR OESH 260400Z 10014KT CAVOK 19/01 Q1017 NOSIG=
METAR OETB 260400Z 00000KT 9999 FEW035 10/03 Q1014 NOSIG=
METAR OETF 260400Z 21003KT 9999 FEW030 15/09 Q1020 NOSIG=
METAR OETR 260400Z 24006KT 9999 FEW030 09/09 Q1011 NOSIG=
METAR OEWD 260400Z 06008KT CAVOK 14/07 Q1017 NOSIG=
METAR OEWJ 260400Z 30010KT 9999 SCT040 20/12 Q1013 NOSIG=
METAR OEYN 260400Z 00000KT 9999 FEW040 22/20 Q1010 NOSIG=
METAR OKBK 260400Z 19009KT 5000 -HZ FEW040 16/12 Q1016 NOSIG=
METAR OOMS 260350Z 23002KT 9999 FEW025 23/15 Q1019 NOSIG=
METAR OOSA 260350Z 02008KT CAVOK 25/10 Q1016 NOSIG=
METAR OYSN NIL=
METAR OYAA NIL=
 
Thursday, November 26, 2020 (04:32 UTC)